createdAt,value
2018-07-27T00:01:38.545Z,29.10
2018-07-27T00:04:08.319Z,29.10
2018-07-27T00:06:37.973Z,29.10
2018-07-27T00:09:11.951Z,29.10
2018-07-27T00:11:42.389Z,29.10
2018-07-27T00:14:12.141Z,29.00
2018-07-27T00:16:41.738Z,29.00
2018-07-27T00:19:11.358Z,29.00
2018-07-27T00:21:41.058Z,29.00
2018-07-27T00:24:11.134Z,28.90
2018-07-27T00:26:41.378Z,28.90
2018-07-27T00:29:11.003Z,28.90
2018-07-27T00:31:40.808Z,28.90
2018-07-27T00:34:10.462Z,28.90
2018-07-27T00:36:40.184Z,28.80
2018-07-27T00:39:10.813Z,28.80
2018-07-27T00:41:40.801Z,28.80
2018-07-27T00:44:10.482Z,28.80
2018-07-27T00:46:40.225Z,28.80
2018-07-27T00:49:09.980Z,28.80
2018-07-27T00:51:39.745Z,28.80
2018-07-27T00:54:09.459Z,28.80
2018-07-27T00:56:39.073Z,28.80
2018-07-27T00:59:08.733Z,28.80
2018-07-27T01:01:38.402Z,28.80
2018-07-27T01:04:08.481Z,28.70
2018-07-27T01:06:38.457Z,28.70
2018-07-27T01:09:09.977Z,28.70
2018-07-27T01:11:39.580Z,28.60
2018-07-27T01:14:09.253Z,28.70
2018-07-27T01:16:38.906Z,28.60
2018-07-27T01:19:08.649Z,28.60
2018-07-27T01:21:38.406Z,28.60
2018-07-27T01:24:08.114Z,28.60
2018-07-27T01:26:37.733Z,28.60
2018-07-27T01:29:07.462Z,28.50
2018-07-27T01:31:37.198Z,28.50
2018-07-27T01:34:06.933Z,28.50
2018-07-27T01:36:36.666Z,28.50
2018-07-27T01:39:11.901Z,28.40
2018-07-27T01:41:41.893Z,28.40
2018-07-27T01:44:12.159Z,28.30
2018-07-27T01:46:42.379Z,28.30
2018-07-27T01:49:12.043Z,28.30
2018-07-27T01:51:41.770Z,28.20
2018-07-27T01:54:11.530Z,28.20
2018-07-27T01:56:41.289Z,28.20
2018-07-27T01:59:10.994Z,28.20
2018-07-27T02:01:40.835Z,28.10
2018-07-27T02:04:10.467Z,28.10
2018-07-27T02:06:40.136Z,28.10
2018-07-27T02:09:10.750Z,28.10
2018-07-27T02:11:40.402Z,28.10
2018-07-27T02:14:09.940Z,28.10
2018-07-27T02:16:39.629Z,28.00
2018-07-27T02:19:09.201Z,28.00
2018-07-27T02:21:38.814Z,27.90
2018-07-27T02:24:08.442Z,27.90
2018-07-27T02:26:38.069Z,27.90
2018-07-27T02:29:07.725Z,27.80
2018-07-27T02:31:37.351Z,27.80
2018-07-27T02:34:06.974Z,27.80
2018-07-27T02:36:36.603Z,27.70
2018-07-27T02:39:09.832Z,27.70
2018-07-27T02:41:39.514Z,27.60
2018-07-27T02:44:09.778Z,27.60
2018-07-27T02:46:39.437Z,27.60
2018-07-27T02:49:09.002Z,27.50
2018-07-27T02:51:38.605Z,27.40
2018-07-27T02:54:08.154Z,27.40
2018-07-27T02:56:37.729Z,27.30
2018-07-27T02:59:07.449Z,27.30
2018-07-27T03:01:37.409Z,27.20
2018-07-27T03:04:07.138Z,27.20
2018-07-27T03:06:36.942Z,27.10
2018-07-27T03:09:10.122Z,27.10
2018-07-27T03:11:40.220Z,27.10
2018-07-27T03:14:10.383Z,27.00
2018-07-27T03:16:40.170Z,27.00
2018-07-27T03:19:09.866Z,27.00
2018-07-27T03:21:39.551Z,26.90
2018-07-27T03:24:09.339Z,26.90
2018-07-27T03:26:39.113Z,26.90
2018-07-27T03:29:08.485Z,26.90
2018-07-27T03:31:38.130Z,26.80
2018-07-27T03:34:07.777Z,26.80
2018-07-27T03:36:37.785Z,26.80
2018-07-27T03:39:10.385Z,26.70
2018-07-27T03:41:40.087Z,26.70
2018-07-27T03:44:09.761Z,26.70
2018-07-27T03:46:39.377Z,26.70
2018-07-27T03:49:08.993Z,26.70
2018-07-27T03:51:38.622Z,26.70
2018-07-27T03:54:08.383Z,26.60
2018-07-27T03:56:38.051Z,26.60
2018-07-27T03:59:07.713Z,26.60
2018-07-27T04:01:37.445Z,26.60
2018-07-27T04:04:07.049Z,26.60
2018-07-27T04:06:36.692Z,26.60
2018-07-27T04:09:09.163Z,26.60
2018-07-27T04:11:39.233Z,26.60
2018-07-27T04:14:09.305Z,26.60
2018-07-27T04:16:38.993Z,26.60
2018-07-27T04:19:08.761Z,26.60
2018-07-27T04:21:38.513Z,26.60
2018-07-27T04:24:08.284Z,26.60
2018-07-27T04:26:37.966Z,26.60
2018-07-27T04:29:07.507Z,26.60
2018-07-27T04:31:37.492Z,26.60
2018-07-27T04:34:07.375Z,26.60
2018-07-27T04:36:37.059Z,26.60
2018-07-27T04:39:10.260Z,26.60
2018-07-27T04:41:39.959Z,26.70
2018-07-27T04:44:09.677Z,26.70
2018-07-27T04:46:39.335Z,26.70
2018-07-27T04:49:08.974Z,26.70
2018-07-27T04:51:38.594Z,26.60
2018-07-27T04:54:08.234Z,26.70
2018-07-27T04:56:37.945Z,26.70
2018-07-27T04:59:07.670Z,26.70
2018-07-27T05:01:37.300Z,26.70
2018-07-27T05:04:07.042Z,26.70
2018-07-27T05:06:36.621Z,26.70
2018-07-27T05:09:13.599Z,26.70
2018-07-27T05:11:43.500Z,26.80
2018-07-27T05:14:13.170Z,26.80
2018-07-27T05:16:42.883Z,26.90
2018-07-27T05:19:12.485Z,27.00
2018-07-27T05:21:42.526Z,27.10
2018-07-27T05:24:12.086Z,27.20
2018-07-27T05:26:41.728Z,27.30
2018-07-27T05:29:11.301Z,27.40
2018-07-27T05:31:40.938Z,27.50
2018-07-27T05:34:10.621Z,27.60
2018-07-27T05:36:40.343Z,27.70
2018-07-27T05:39:12.024Z,27.80
2018-07-27T05:41:41.836Z,27.90
2018-07-27T05:44:11.497Z,28.00
2018-07-27T05:46:41.059Z,28.10
2018-07-27T05:49:10.722Z,28.20
2018-07-27T05:51:40.574Z,28.30
2018-07-27T05:54:10.622Z,28.40
2018-07-27T05:56:40.286Z,28.50
2018-07-27T05:59:09.884Z,28.70
2018-07-27T06:01:39.434Z,28.70
2018-07-27T06:04:09.143Z,28.80
2018-07-27T06:06:38.793Z,28.90
2018-07-27T06:09:10.590Z,29.00
2018-07-27T06:11:40.199Z,29.10
2018-07-27T06:16:39.107Z,29.30
2018-07-27T06:19:09.121Z,29.50
2018-07-27T06:21:38.722Z,29.60
2018-07-27T06:24:08.867Z,29.60
2018-07-27T06:26:38.517Z,29.70
2018-07-27T06:29:08.197Z,29.80
2018-07-27T06:31:37.960Z,30.00
2018-07-27T06:34:07.718Z,30.10
2018-07-27T06:36:37.489Z,30.20
2018-07-27T06:39:09.983Z,30.40
2018-07-27T06:41:40.042Z,30.60
2018-07-27T06:44:09.741Z,30.70
2018-07-27T06:49:08.701Z,31.10
2018-07-27T06:51:38.381Z,31.20
2018-07-27T06:54:08.197Z,31.40
2018-07-27T06:56:37.998Z,31.50
2018-07-27T06:59:07.833Z,31.60
2018-07-27T07:01:37.433Z,31.70
2018-07-27T07:04:07.095Z,31.90
2018-07-27T07:06:36.789Z,32.00
2018-07-27T07:09:09.686Z,32.10
2018-07-27T07:11:39.349Z,32.20
2018-07-27T07:14:09.503Z,32.30
2018-07-27T07:16:39.269Z,32.40
2018-07-27T07:19:09.906Z,32.50
2018-07-27T07:21:39.722Z,32.60
2018-07-27T07:24:09.512Z,32.70
2018-07-27T07:26:39.205Z,32.80
2018-07-27T07:29:08.834Z,32.90
2018-07-27T07:31:38.541Z,33.00
2018-07-27T07:34:08.238Z,33.20
2018-07-27T07:36:37.977Z,33.40
2018-07-27T07:39:11.272Z,33.60
2018-07-27T07:41:41.336Z,33.70
2018-07-27T07:44:10.959Z,33.90
2018-07-27T07:46:41.122Z,34.10
2018-07-27T07:49:10.711Z,34.20
2018-07-27T07:51:40.397Z,34.40
2018-07-27T07:54:10.115Z,34.50
2018-07-27T07:56:39.745Z,34.70
2018-07-27T07:59:09.291Z,34.90
2018-07-27T08:01:39.014Z,35.00
2018-07-27T08:04:08.588Z,35.10
2018-07-27T08:06:38.207Z,35.20
2018-07-27T08:09:10.118Z,35.40
2018-07-27T08:11:39.923Z,35.50
2018-07-27T08:14:09.552Z,35.70
2018-07-27T08:16:39.144Z,35.80
2018-07-27T08:19:08.861Z,36.00
2018-07-27T08:21:38.507Z,36.20
2018-07-27T08:24:08.192Z,36.30
2018-07-27T08:26:40.358Z,36.50
2018-07-27T08:29:14.101Z,36.60
2018-07-27T08:31:45.007Z,36.70
2018-07-27T08:34:15.418Z,36.80
2018-07-27T08:36:45.141Z,36.90
2018-07-27T08:39:16.930Z,36.90
2018-07-27T08:41:47.070Z,37.10
2018-07-27T08:44:18.019Z,37.20
2018-07-27T08:46:47.788Z,37.30
2018-07-27T08:49:17.399Z,37.40
2018-07-27T08:51:47.438Z,37.60
2018-07-27T08:54:16.930Z,37.70
2018-07-27T08:56:46.433Z,37.80
2018-07-27T08:59:16.122Z,37.90
2018-07-27T09:04:14.893Z,38.10
2018-07-27T09:06:44.576Z,38.30
2018-07-27T09:09:16.546Z,38.40
2018-07-27T09:11:46.185Z,38.60
2018-07-27T09:14:15.729Z,38.70
2018-07-27T09:16:45.498Z,38.90
2018-07-27T09:19:15.236Z,39.00
2018-07-27T09:21:45.207Z,39.10
2018-07-27T09:24:14.941Z,39.20
2018-07-27T09:26:44.637Z,39.30
2018-07-27T09:29:14.244Z,39.30
2018-07-27T09:31:43.945Z,39.30
2018-07-27T09:34:13.691Z,39.30
2018-07-27T09:36:43.273Z,39.30
2018-07-27T09:39:12.896Z,39.30
2018-07-27T09:41:42.628Z,39.40
2018-07-27T09:44:12.225Z,39.50
2018-07-27T09:46:41.854Z,39.60
2018-07-27T09:49:11.484Z,39.70
2018-07-27T09:51:40.990Z,39.70
2018-07-27T09:54:10.570Z,39.80
2018-07-27T09:56:40.190Z,39.80
2018-07-27T09:59:09.837Z,39.80
2018-07-27T10:02:10.266Z,39.70
2018-07-27T10:04:39.858Z,39.60
2018-07-27T10:07:09.514Z,39.50
2018-07-27T10:09:39.158Z,39.40
2018-07-27T10:12:08.752Z,39.40
2018-07-27T10:14:38.292Z,39.40
2018-07-27T10:17:07.980Z,39.40
2018-07-27T10:19:37.695Z,39.50
2018-07-27T10:22:07.637Z,39.60
2018-07-27T10:24:37.301Z,39.60
2018-07-27T10:27:07.206Z,39.70
2018-07-27T10:29:36.771Z,39.70
2018-07-27T10:32:06.413Z,39.80
2018-07-27T10:34:36.165Z,39.80
2018-07-27T10:37:05.863Z,39.80
2018-07-27T10:39:35.539Z,39.90
2018-07-27T10:42:05.250Z,39.90
2018-07-27T10:47:04.183Z,40.10
2018-07-27T10:49:33.906Z,40.20
2018-07-27T10:54:32.832Z,40.50
2018-07-27T10:57:02.559Z,40.50
2018-07-27T10:59:32.301Z,40.50
2018-07-27T11:02:01.971Z,40.60
2018-07-27T11:04:32.437Z,40.70
2018-07-27T11:07:02.074Z,40.80
2018-07-27T11:09:31.768Z,41.00
2018-07-27T11:12:01.414Z,41.20
2018-07-27T11:14:31.315Z,41.40
2018-07-27T11:17:01.074Z,41.50
2018-07-27T11:19:31.574Z,41.70
2018-07-27T11:22:01.266Z,41.80
2018-07-27T11:24:31.052Z,41.80
2018-07-27T11:27:00.770Z,41.80
2018-07-27T11:29:30.666Z,41.80
2018-07-27T11:32:00.374Z,41.80
2018-07-27T11:34:29.991Z,41.70
2018-07-27T11:36:59.671Z,41.70
2018-07-27T11:39:29.362Z,41.70
2018-07-27T11:41:59.032Z,41.70
2018-07-27T11:44:28.635Z,41.70
2018-07-27T11:46:58.157Z,41.60
2018-07-27T11:49:27.972Z,41.50
2018-07-27T11:51:57.522Z,41.50
2018-07-27T11:54:27.113Z,41.40
2018-07-27T11:56:57.795Z,41.50
2018-07-27T11:59:27.467Z,41.50
2018-07-27T12:01:57.379Z,41.50
2018-07-27T12:06:56.561Z,41.90
2018-07-27T12:09:26.250Z,42.00
2018-07-27T12:11:55.986Z,42.10
2018-07-27T12:14:26.207Z,42.10
2018-07-27T12:16:55.826Z,42.10
2018-07-27T12:19:25.447Z,42.10
2018-07-27T12:21:55.197Z,42.20
2018-07-27T12:24:24.862Z,42.40
2018-07-27T12:26:54.553Z,42.50
2018-07-27T12:29:24.195Z,42.60
2018-07-27T12:31:53.877Z,42.70
2018-07-27T12:34:23.527Z,42.80
2018-07-27T12:36:53.231Z,42.80
2018-07-27T12:39:22.923Z,42.80
2018-07-27T12:41:52.535Z,42.70
2018-07-27T12:44:22.131Z,42.70
2018-07-27T12:46:51.737Z,42.70
2018-07-27T12:49:21.351Z,42.70
2018-07-27T12:51:50.973Z,42.70
2018-07-27T12:54:20.789Z,42.80
2018-07-27T12:56:50.521Z,42.90
2018-07-27T12:59:20.237Z,43.00
2018-07-27T13:01:49.781Z,43.10
2018-07-27T13:04:21.955Z,43.20
2018-07-27T13:06:51.593Z,43.20
2018-07-27T13:09:21.364Z,43.10
2018-07-27T13:11:51.045Z,43.10
2018-07-27T13:14:20.764Z,43.00
2018-07-27T13:16:50.547Z,42.90
2018-07-27T13:19:20.254Z,42.90
2018-07-27T13:21:50.495Z,42.90
2018-07-27T13:24:20.064Z,42.90
2018-07-27T13:26:49.781Z,42.90
2018-07-27T13:29:19.491Z,42.80
2018-07-27T13:31:51.931Z,42.80
2018-07-27T13:34:41.650Z,42.70
2018-07-27T13:37:11.596Z,42.60
2018-07-27T13:39:42.107Z,42.50
2018-07-27T13:42:13.662Z,42.50
2018-07-27T13:44:43.653Z,42.50
2018-07-27T13:47:13.746Z,42.50
2018-07-27T13:49:43.385Z,42.60
2018-07-27T13:52:12.987Z,42.60
2018-07-27T13:54:42.568Z,42.60
2018-07-27T13:57:12.246Z,42.70
2018-07-27T13:59:41.827Z,42.70
2018-07-27T14:02:11.899Z,42.60
2018-07-27T14:04:41.561Z,42.60
2018-07-27T14:07:12.101Z,42.50
2018-07-27T14:09:41.755Z,42.30
2018-07-27T14:12:11.428Z,42.20
2018-07-27T14:14:41.241Z,42.20
2018-07-27T14:17:10.828Z,42.10
2018-07-27T14:19:40.461Z,42.10
2018-07-27T14:22:10.213Z,42.10
2018-07-27T14:24:39.851Z,42.10
2018-07-27T14:27:09.515Z,42.10
2018-07-27T14:29:39.278Z,42.10
2018-07-27T14:32:08.932Z,42.00
2018-07-27T14:34:38.730Z,42.00
2018-07-27T14:37:08.426Z,42.00
2018-07-27T14:39:38.112Z,42.00
2018-07-27T14:42:07.722Z,42.10
2018-07-27T14:44:37.552Z,42.10
2018-07-27T14:47:07.254Z,42.20
2018-07-27T14:49:36.996Z,42.20
2018-07-27T14:52:06.761Z,42.30
2018-07-27T14:54:36.443Z,42.30
2018-07-27T14:57:07.238Z,42.30
2018-07-27T14:59:36.905Z,42.30
2018-07-27T15:02:06.827Z,42.30
2018-07-27T15:04:36.505Z,42.30
2018-07-27T15:07:06.206Z,42.30
2018-07-27T15:09:35.820Z,42.40
2018-07-27T15:12:05.614Z,42.50
2018-07-27T15:14:35.219Z,42.50
2018-07-27T15:17:04.868Z,42.50
2018-07-27T15:19:34.490Z,42.50
2018-07-27T15:22:04.826Z,42.60
2018-07-27T15:24:34.581Z,42.50
2018-07-27T15:27:04.211Z,42.40
2018-07-27T15:29:33.924Z,42.40
2018-07-27T15:32:03.652Z,42.40
2018-07-27T15:34:33.357Z,42.40
2018-07-27T15:37:02.894Z,42.30
2018-07-27T15:39:32.603Z,42.20
2018-07-27T15:42:02.273Z,42.20
2018-07-27T15:44:31.866Z,42.10
2018-07-27T15:47:01.429Z,42.00
2018-07-27T15:49:31.223Z,41.90
2018-07-27T15:52:01.008Z,41.90
2018-07-27T15:54:30.690Z,42.00
2018-07-27T15:59:29.786Z,42.00
2018-07-27T16:01:59.510Z,42.00
2018-07-27T16:05:32.244Z,41.90
2018-07-27T16:08:02.075Z,41.80
2018-07-27T16:10:31.841Z,41.80
2018-07-27T16:13:01.486Z,41.70
2018-07-27T16:15:31.096Z,41.60
2018-07-27T16:18:00.721Z,41.50
2018-07-27T16:20:30.540Z,41.40
2018-07-27T16:23:00.209Z,41.40
2018-07-27T16:25:29.889Z,41.30
2018-07-27T16:27:59.598Z,41.30
2018-07-27T16:30:29.168Z,41.20
2018-07-27T16:32:58.783Z,41.20
2018-07-27T16:35:28.417Z,41.20
2018-07-27T16:37:58.115Z,41.00
2018-07-27T16:40:27.933Z,40.90
2018-07-27T16:42:57.766Z,40.90
2018-07-27T16:45:28.568Z,40.80
2018-07-27T16:47:58.943Z,40.60
2018-07-27T16:50:28.568Z,40.50
2018-07-27T16:57:57.116Z,40.10
2018-07-27T17:00:27.593Z,39.90
2018-07-27T17:02:57.256Z,39.80
2018-07-27T17:05:27.081Z,39.60
2018-07-27T17:07:56.726Z,39.50
2018-07-27T17:10:26.418Z,39.20
2018-07-27T17:12:56.154Z,39.10
2018-07-27T17:15:25.914Z,39.00
2018-07-27T17:17:55.706Z,38.90
2018-07-27T17:20:25.368Z,38.80
2018-07-27T17:22:55.079Z,38.70
2018-07-27T17:25:24.884Z,38.70
2018-07-27T17:27:54.397Z,38.60
2018-07-27T17:30:24.164Z,38.60
2018-07-27T17:32:53.912Z,38.50
2018-07-27T17:35:23.478Z,38.40
2018-07-27T17:37:53.202Z,38.40
2018-07-27T17:40:22.881Z,38.30
2018-07-27T17:42:52.718Z,38.30
2018-07-27T17:45:22.378Z,38.30
2018-07-27T17:47:51.977Z,38.20
2018-07-27T17:50:21.691Z,38.20
2018-07-27T17:52:51.405Z,38.20
2018-07-27T17:55:21.051Z,38.20
2018-07-27T17:57:50.723Z,38.10
2018-07-27T18:00:20.333Z,38.10
2018-07-27T18:02:50.025Z,38.00
2018-07-27T18:05:19.677Z,37.90
2018-07-27T18:07:49.538Z,37.90
2018-07-27T18:10:19.258Z,37.80
2018-07-27T18:12:48.850Z,37.80
2018-07-27T18:15:18.543Z,37.70
2018-07-27T18:17:48.238Z,37.70
2018-07-27T18:20:17.986Z,37.60
2018-07-27T18:22:47.634Z,37.50
2018-07-27T18:25:17.931Z,37.50
2018-07-27T18:27:47.990Z,37.40
2018-07-27T18:30:17.732Z,37.30
2018-07-27T18:32:47.452Z,37.20
2018-07-27T18:35:17.190Z,37.20
2018-07-27T18:40:16.196Z,37.00
2018-07-27T18:42:45.964Z,37.00
2018-07-27T18:45:15.664Z,36.90
2018-07-27T18:47:45.317Z,36.90
2018-07-27T18:50:15.023Z,36.90
2018-07-27T18:52:44.689Z,36.80
2018-07-27T18:55:14.331Z,36.80
2018-07-27T18:57:44.049Z,36.60
2018-07-27T19:00:13.694Z,36.50
2018-07-27T19:05:12.776Z,36.20
2018-07-27T19:07:42.626Z,36.10
2018-07-27T19:10:12.397Z,36.00
2018-07-27T19:12:42.140Z,35.90
2018-07-27T19:15:11.739Z,35.70
2018-07-27T19:17:41.418Z,35.60
2018-07-27T19:20:11.093Z,35.40
2018-07-27T19:22:40.713Z,35.30
2018-07-27T19:25:11.592Z,35.20
2018-07-27T19:27:41.414Z,35.10
2018-07-27T19:30:12.284Z,35.00
2018-07-27T19:32:42.039Z,34.90
2018-07-27T19:35:11.736Z,34.80
2018-07-27T19:37:41.484Z,34.70
2018-07-27T19:40:11.146Z,34.60
2018-07-27T19:42:40.880Z,34.50
2018-07-27T19:45:10.688Z,34.40
2018-07-27T19:47:40.504Z,34.30
2018-07-27T19:50:10.214Z,34.20
2018-07-27T19:52:39.958Z,34.10
2018-07-27T19:55:09.688Z,34.00
2018-07-27T19:57:39.398Z,33.90
2018-07-27T20:00:09.151Z,33.80
2018-07-27T20:02:38.849Z,33.70
2018-07-27T20:05:08.631Z,33.60
2018-07-27T20:07:38.363Z,33.50
2018-07-27T20:10:08.894Z,33.40
2018-07-27T20:12:38.743Z,33.30
2018-07-27T20:15:08.545Z,33.20
2018-07-27T20:17:38.455Z,33.10
2018-07-27T20:20:09.588Z,33.00
2018-07-27T20:22:39.307Z,33.00
2018-07-27T20:27:38.330Z,32.80
2018-07-27T20:30:08.059Z,32.70
2018-07-27T20:32:37.734Z,32.70
2018-07-27T20:35:07.399Z,32.60
2018-07-27T20:37:37.265Z,32.50
2018-07-27T20:40:07.911Z,32.50
2018-07-27T20:42:37.925Z,32.40
2018-07-27T20:45:08.295Z,32.30
2018-07-27T20:47:38.006Z,32.30
2018-07-27T20:50:08.653Z,32.20
2018-07-27T20:52:38.399Z,32.20
2018-07-27T20:55:08.922Z,32.00
2018-07-27T20:57:43.993Z,32.00
2018-07-27T21:02:46.163Z,31.80
2018-07-27T21:05:17.032Z,31.80
2018-07-27T21:07:47.796Z,31.80
2018-07-27T21:10:18.292Z,31.70
2018-07-27T21:12:49.458Z,31.60
2018-07-27T21:15:20.627Z,31.60
2018-07-27T21:17:52.475Z,31.50
2018-07-27T21:20:22.983Z,31.40
2018-07-27T21:22:53.348Z,31.40
2018-07-27T21:25:25.595Z,31.30
2018-07-27T21:27:58.193Z,31.30
2018-07-27T21:30:28.662Z,31.30
2018-07-27T21:32:58.908Z,31.20
2018-07-27T21:35:29.563Z,31.10
2018-07-27T21:37:59.816Z,31.10
2018-07-27T21:40:30.022Z,31.00
2018-07-27T21:43:00.675Z,30.90
2018-07-27T21:45:30.875Z,30.80
2018-07-27T21:48:02.198Z,30.70
2018-07-27T21:50:33.010Z,30.70
2018-07-27T21:53:02.788Z,30.60
2018-07-27T21:55:33.400Z,30.50
2018-07-27T21:58:03.467Z,30.40
2018-07-27T22:00:33.981Z,30.30
2018-07-27T22:03:05.722Z,30.20
2018-07-27T22:05:36.000Z,30.20
2018-07-27T22:08:05.700Z,30.10
2018-07-27T22:10:35.716Z,30.00
2018-07-27T22:13:05.531Z,29.90
2018-07-27T22:15:35.254Z,29.80
2018-07-27T22:18:04.952Z,29.80
2018-07-27T22:20:38.026Z,29.70
2018-07-27T22:23:07.657Z,29.60
2018-07-27T22:25:37.476Z,29.50
2018-07-27T22:28:07.289Z,29.40
2018-07-27T22:30:36.951Z,29.40
2018-07-27T22:33:06.678Z,29.30
2018-07-27T22:35:36.277Z,29.20
2018-07-27T22:38:06.773Z,29.20
2018-07-27T22:40:37.180Z,29.10
2018-07-27T22:45:36.085Z,29.00
2018-07-27T22:48:05.945Z,28.90
2018-07-27T22:53:05.017Z,28.80
2018-07-27T22:55:34.659Z,28.70
2018-07-27T22:58:04.281Z,28.70
2018-07-27T23:00:33.873Z,28.70
2018-07-27T23:03:03.622Z,28.60
2018-07-27T23:05:33.222Z,28.60
2018-07-27T23:08:02.916Z,28.50
2018-07-27T23:10:32.497Z,28.50
2018-07-27T23:13:02.141Z,28.50
2018-07-27T23:15:31.844Z,28.50
2018-07-27T23:20:30.730Z,28.50
2018-07-27T23:23:00.418Z,28.50
2018-07-27T23:25:30.120Z,28.60
2018-07-27T23:27:59.785Z,28.70
2018-07-27T23:30:29.485Z,28.70
2018-07-27T23:32:59.270Z,28.80
2018-07-27T23:35:28.859Z,28.90
2018-07-27T23:37:58.480Z,29.00
2018-07-27T23:40:28.182Z,29.10
2018-07-27T23:42:57.940Z,29.10
2018-07-27T23:45:27.626Z,29.10
2018-07-27T23:47:57.354Z,29.10
2018-07-27T23:50:27.134Z,29.10
2018-07-27T23:52:56.938Z,29.00
2018-07-27T23:55:27.049Z,29.00
2018-07-27T23:57:57.004Z,29.00
